Terminal Aerodrome Forecast
Issued by NWS

Home | Current Version | Previous Version | Text Only | Print | Product List | Glossary On
Versions: 1 2 3 4 5 6 7 8 9 10 11 12 13 14 15 16 17 18 19 20 21 22 23 24 25 26 27 28 29 30 31
000
FTUS44 KBMX 281129
TAFTOI
TAF
KTOI 281129Z 2812/2912 09004KT P6SM SCT005 BKN100
      TEMPO 2812/2814 5SM BR BKN005
     FM281500 00000KT P6SM BKN015 BKN100
     FM281800 11004KT P6SM VCSH SCT050 BKN250
     FM282000 12006KT P6SM SHRA VCTS BKN050CB
     FM290300 00000KT P6SM OVC100
     FM291000 00000KT 5SM BR BKN010=

USA.gov is the U.S. government's official web portal to all federal, state and local government web resources and services.